Time;durP1;ratioP1;P1;durP2;ratioP2;P2;SDS_P1;SDS_P2;PMS_P1;PMS_P2;Temp;Humidity;BMP_temperature;BMP_pressure;BME280_temperature;BME280_humidity;BME280_pressure;Samples;Min_cycle;Max_cycle;Signal;HPM_P1;HPM_P2
2022/10/29 00:00:37;;;;;;;7.47;6.70;;;;;;;;;;5002491;28;20232;-75
2022/10/29 00:03:03;;;;;;;12.10;7.30;;;;;;;;;;4985087;28;20298;-76
2022/10/29 00:05:28;;;;;;;9.65;7.07;;;;;;;;;;5005870;28;20238;-76
2022/10/29 00:07:54;;;;;;;12.63;7.50;;;;;;;;;;5011748;28;20245;-75
2022/10/29 00:10:19;;;;;;;8.75;6.55;;;;;;;;;;5022496;28;20242;-76
2022/10/29 00:12:47;;;;;;;10.80;6.65;;;;;;;;;;5020062;28;20355;-76
2022/10/29 00:15:13;;;;;;;9.05;6.28;;;;;;;;;;5017070;28;20311;-76
2022/10/29 00:17:38;;;;;;;9.45;7.20;;;;;;;;;;5003354;28;20766;-75
2022/10/29 00:20:07;;;;;;;9.77;7.50;;;;;;;;;;5019932;28;20717;-75
2022/10/29 00:22:34;;;;;;;9.35;6.78;;;;;;;;;;4998301;28;20229;-76
2022/10/29 00:25:00;;;;;;;13.63;7.57;;;;;;;;;;5002098;28;20224;-74
2022/10/29 00:27:32;;;;;;;14.15;7.65;;;;;;;;;;5021838;28;20223;-75
2022/10/29 00:29:58;;;;;;;12.02;8.32;;;;;;;;;;5024718;28;20217;-76
2022/10/29 00:32:25;;;;;;;14.25;7.70;;;;;;;;;;5016247;28;20602;-76
2022/10/29 00:34:51;;;;;;;11.05;7.75;;;;;;;;;;5024823;28;20614;-76
2022/10/29 00:37:23;;;;;;;13.75;7.82;;;;;;;;;;5022350;28;20220;-76
2022/10/29 00:39:54;;;;;;;11.98;7.80;;;;;;;;;;5011218;28;20219;-75
2022/10/29 00:42:22;;;;;;;16.40;8.15;;;;;;;;;;5017865;28;20244;-76
2022/10/29 00:44:47;;;;;;;14.45;8.70;;;;;;;;;;5019251;28;20229;-75
2022/10/29 00:47:18;;;;;;;13.35;8.25;;;;;;;;;;5015124;28;20223;-76
2022/10/29 00:49:52;;;;;;;13.43;8.07;;;;;;;;;;5002066;28;20675;-75
2022/10/29 00:52:18;;;;;;;16.90;8.65;;;;;;;;;;4998232;28;20229;-75
2022/10/29 00:54:44;;;;;;;12.02;7.93;;;;;;;;;;4999797;28;20309;-75
2022/10/29 00:57:21;;;;;;;9.50;7.43;;;;;;;;;;5011198;28;20761;-74
2022/10/29 00:59:46;;;;;;;12.43;8.10;;;;;;;;;;4999914;28;20216;-74
2022/10/29 01:02:16;;;;;;;12.75;8.30;;;;;;;;;;5001872;28;20228;-76
2022/10/29 01:04:44;;;;;;;14.13;7.72;;;;;;;;;;4994487;28;20227;-75
2022/10/29 01:07:11;;;;;;;10.75;8.18;;;;;;;;;;5002849;28;20224;-76
2022/10/29 01:09:40;;;;;;;12.15;7.65;;;;;;;;;;5008201;28;20745;-76
2022/10/29 01:12:21;;;;;;;12.18;8.27;;;;;;;;;;4987748;28;20251;-75
2022/10/29 01:15:04;;;;;;;13.57;8.38;;;;;;;;;;5017351;28;20232;-75
2022/10/29 01:17:58;;;;;;;11.70;8.32;;;;;;;;;;5016403;28;20277;-76
2022/10/29 01:20:28;;;;;;;9.85;8.13;;;;;;;;;;5020927;28;20657;-76
2022/10/29 01:23:25;;;;;;;10.07;7.43;;;;;;;;;;5015117;28;20278;-76
2022/10/29 01:26:03;;;;;;;12.70;7.30;;;;;;;;;;5018708;28;20304;-76
2022/10/29 01:28:40;;;;;;;10.65;8.02;;;;;;;;;;5011955;28;20239;-76
2022/10/29 01:31:22;;;;;;;13.52;7.90;;;;;;;;;;5023576;28;20609;-76
2022/10/29 01:33:56;;;;;;;11.85;8.38;;;;;;;;;;5002261;28;20224;-75
2022/10/29 01:36:34;;;;;;;12.40;8.13;;;;;;;;;;5017518;28;20243;-75
2022/10/29 01:39:12;;;;;;;12.50;8.33;;;;;;;;;;5018687;28;20212;-75
2022/10/29 01:41:46;;;;;;;12.80;8.48;;;;;;;;;;5018276;28;20305;-75
2022/10/29 01:44:33;;;;;;;11.95;8.10;;;;;;;;;;5020625;28;20307;-76
2022/10/29 01:47:03;;;;;;;12.85;8.82;;;;;;;;;;5013427;28;20240;-75
2022/10/29 01:49:36;;;;;;;10.95;8.27;;;;;;;;;;5001770;28;20319;-75
2022/10/29 01:52:04;;;;;;;12.35;8.32;;;;;;;;;;5000957;28;20228;-76
2022/10/29 01:54:29;;;;;;;14.65;8.65;;;;;;;;;;4994367;28;20232;-76
2022/10/29 01:56:58;;;;;;;13.70;8.77;;;;;;;;;;5017820;28;20286;-76
2022/10/29 01:59:28;;;;;;;12.65;8.52;;;;;;;;;;4973185;28;20233;-75
2022/10/29 02:01:59;;;;;;;14.32;8.73;;;;;;;;;;5002454;28;20302;-76
2022/10/29 02:04:32;;;;;;;13.73;8.65;;;;;;;;;;5017557;28;20781;-75
2022/10/29 02:07:09;;;;;;;11.38;8.13;;;;;;;;;;5000384;28;20706;-76
2022/10/29 02:09:41;;;;;;;16.45;8.50;;;;;;;;;;5001795;28;20382;-76
2022/10/29 02:12:19;;;;;;;15.02;8.15;;;;;;;;;;5016773;28;20232;-76
2022/10/29 02:15:01;;;;;;;12.05;7.53;;;;;;;;;;4999607;28;20243;-76
2022/10/29 02:17:26;;;;;;;14.75;8.07;;;;;;;;;;5001001;28;20310;-76
2022/10/29 02:19:52;;;;;;;10.35;7.47;;;;;;;;;;5005250;28;20220;-76
2022/10/29 02:22:17;;;;;;;8.25;7.45;;;;;;;;;;5017750;28;20223;-76
2022/10/29 02:24:43;;;;;;;14.27;7.22;;;;;;;;;;5012765;28;20224;-76
2022/10/29 02:27:11;;;;;;;12.25;7.63;;;;;;;;;;5014331;28;20939;-76
2022/10/29 02:29:37;;;;;;;10.48;6.43;;;;;;;;;;5019642;28;20254;-76
2022/10/29 02:32:03;;;;;;;11.68;7.57;;;;;;;;;;5017569;28;20282;-76
2022/10/29 02:34:28;;;;;;;10.30;6.95;;;;;;;;;;5016223;28;20311;-75
2022/10/29 02:36:54;;;;;;;8.23;6.30;;;;;;;;;;5017229;28;20224;-76
2022/10/29 02:39:21;;;;;;;10.70;6.95;;;;;;;;;;5015738;28;20228;-76
2022/10/29 02:41:47;;;;;;;8.65;6.85;;;;;;;;;;5016717;28;20620;-75
2022/10/29 02:44:15;;;;;;;12.88;7.30;;;;;;;;;;5018708;28;20349;-76
2022/10/29 02:46:45;;;;;;;12.18;6.90;;;;;;;;;;5022264;28;20315;-76
2022/10/29 02:49:10;;;;;;;10.65;6.53;;;;;;;;;;5013506;28;20282;-76
2022/10/29 02:51:35;;;;;;;7.60;6.72;;;;;;;;;;5017978;28;20232;-76
2022/10/29 02:54:03;;;;;;;10.10;6.68;;;;;;;;;;5007290;28;21085;-75
2022/10/29 02:56:31;;;;;;;8.88;6.78;;;;;;;;;;5020200;28;20620;-76
2022/10/29 02:58:57;;;;;;;12.88;7.75;;;;;;;;;;5014021;28;20234;-76
2022/10/29 03:01:29;;;;;;;10.43;7.40;;;;;;;;;;4992367;28;20228;-76
2022/10/29 03:03:57;;;;;;;14.40;8.23;;;;;;;;;;4999464;28;20283;-76
2022/10/29 03:06:23;;;;;;;18.23;8.52;;;;;;;;;;5015818;28;20316;-75
2022/10/29 03:08:48;;;;;;;12.93;7.72;;;;;;;;;;5018050;28;20281;-76
2022/10/29 03:11:16;;;;;;;13.30;7.90;;;;;;;;;;5019727;28;20690;-76
2022/10/29 03:13:42;;;;;;;11.35;8.52;;;;;;;;;;5015202;28;20231;-76
2022/10/29 03:16:12;;;;;;;10.93;8.40;;;;;;;;;;5019793;28;20313;-75
2022/10/29 03:18:37;;;;;;;14.30;8.73;;;;;;;;;;5007264;28;20235;-76
2022/10/29 03:21:03;;;;;;;11.53;8.47;;;;;;;;;;5022193;28;20232;-76
2022/10/29 03:23:28;;;;;;;11.03;7.63;;;;;;;;;;5022406;28;20232;-76
2022/10/29 03:25:56;;;;;;;12.90;8.20;;;;;;;;;;5019063;28;20274;-76
2022/10/29 03:28:22;;;;;;;9.85;7.93;;;;;;;;;;5018700;28;20684;-76
2022/10/29 03:30:50;;;;;;;14.97;8.87;;;;;;;;;;4992164;28;20224;-76
2022/10/29 03:33:16;;;;;;;13.50;8.60;;;;;;;;;;5005478;28;20774;-75
2022/10/29 03:35:44;;;;;;;12.30;9.20;;;;;;;;;;5009994;28;20224;-76
2022/10/29 03:38:11;;;;;;;10.73;8.53;;;;;;;;;;5015272;28;20216;-75
2022/10/29 03:40:37;;;;;;;15.23;9.57;;;;;;;;;;5022453;28;20286;-75
2022/10/29 03:43:02;;;;;;;13.43;9.70;;;;;;;;;;5022737;28;20220;-75
2022/10/29 03:45:30;;;;;;;12.47;9.33;;;;;;;;;;5022043;28;20220;-76
2022/10/29 03:48:00;;;;;;;14.40;8.67;;;;;;;;;;5018225;28;20766;-76
2022/10/29 03:50:28;;;;;;;15.07;9.47;;;;;;;;;;4987734;28;20220;-76
2022/10/29 03:52:56;;;;;;;15.30;8.80;;;;;;;;;;5020562;28;20783;-75
2022/10/29 03:55:24;;;;;;;15.47;8.97;;;;;;;;;;5002707;28;20225;-76
2022/10/29 03:57:50;;;;;;;32.30;10.87;;;;;;;;;;5018986;28;20702;-75
2022/10/29 04:00:15;;;;;;;20.53;9.23;;;;;;;;;;5018590;28;20231;-76
2022/10/29 04:02:43;;;;;;;10.53;8.97;;;;;;;;;;5018312;28;20247;-76
2022/10/29 04:05:11;;;;;;;9.67;6.80;;;;;;;;;;5004201;28;20249;-76
2022/10/29 04:07:36;;;;;;;8.57;5.80;;;;;;;;;;5003557;28;20232;-76
2022/10/29 04:10:02;;;;;;;8.60;7.10;;;;;;;;;;5018468;28;20442;-75
2022/10/29 04:12:28;;;;;;;9.87;7.77;;;;;;;;;;5001931;28;20587;-76
2022/10/29 04:14:53;;;;;;;10.23;7.57;;;;;;;;;;5019174;28;20240;-75
2022/10/29 04:17:18;;;;;;;7.77;7.00;;;;;;;;;;5021026;28;20233;-76
2022/10/29 04:19:49;;;;;;;6.70;6.07;;;;;;;;;;5021576;28;20277;-76
2022/10/29 04:22:16;;;;;;;8.83;6.27;;;;;;;;;;5019296;28;20235;-75
2022/10/29 04:24:45;;;;;;;8.30;6.60;;;;;;;;;;5007785;28;20692;-75
2022/10/29 04:27:10;;;;;;;6.70;5.53;;;;;;;;;;5022432;28;20231;-76
2022/10/29 04:29:36;;;;;;;7.73;5.47;;;;;;;;;;5019590;28;20220;-75
2022/10/29 04:32:04;;;;;;;8.70;7.13;;;;;;;;;;5017580;28;20725;-76
2022/10/29 04:34:32;;;;;;;6.80;5.73;;;;;;;;;;5017935;28;20600;-75
2022/10/29 04:36:57;;;;;;;7.23;6.53;;;;;;;;;;5014001;28;20227;-74
2022/10/29 04:39:23;;;;;;;6.67;5.93;;;;;;;;;;5018289;28;20216;-76
2022/10/29 04:41:48;;;;;;;10.07;6.83;;;;;;;;;;5019957;28;20595;-76
2022/10/29 04:44:16;;;;;;;9.20;7.53;;;;;;;;;;5019348;28;20686;-76
2022/10/29 04:46:42;;;;;;;10.00;6.93;;;;;;;;;;5021459;28;20231;-76
2022/10/29 04:49:07;;;;;;;7.90;7.10;;;;;;;;;;5000494;28;20215;-76
2022/10/29 04:51:33;;;;;;;10.33;7.00;;;;;;;;;;5017700;28;20235;-76
2022/10/29 04:54:00;;;;;;;9.67;7.00;;;;;;;;;;4998020;28;20224;-75
2022/10/29 04:56:25;;;;;;;7.50;6.67;;;;;;;;;;5018193;28;20283;-75
2022/10/29 04:58:53;;;;;;;9.27;6.07;;;;;;;;;;5018977;28;20315;-76
2022/10/29 05:01:18;;;;;;;8.07;6.77;;;;;;;;;;5014222;28;20798;-76
2022/10/29 05:03:46;;;;;;;9.03;6.67;;;;;;;;;;5015063;28;20238;-75
2022/10/29 05:06:12;;;;;;;10.77;6.57;;;;;;;;;;5023327;28;20232;-75
2022/10/29 05:08:37;;;;;;;8.83;6.90;;;;;;;;;;5019293;28;20239;-76
2022/10/29 05:11:05;;;;;;;11.83;6.93;;;;;;;;;;5006964;28;20266;-75
2022/10/29 05:13:32;;;;;;;8.73;6.73;;;;;;;;;;5003767;28;20220;-75
2022/10/29 05:15:58;;;;;;;7.07;6.30;;;;;;;;;;5003632;28;20269;-75
2022/10/29 05:18:23;;;;;;;8.40;6.80;;;;;;;;;;5004590;28;20236;-75
2022/10/29 05:20:54;;;;;;;11.73;7.00;;;;;;;;;;5021504;28;20232;-75
2022/10/29 05:23:22;;;;;;;8.17;6.27;;;;;;;;;;4995628;28;20294;-75
2022/10/29 05:25:51;;;;;;;9.40;6.80;;;;;;;;;;5014059;28;20216;-75
2022/10/29 05:28:18;;;;;;;10.90;6.73;;;;;;;;;;4993715;28;20307;-75
2022/10/29 05:30:44;;;;;;;12.90;7.17;;;;;;;;;;4998478;28;20231;-75
2022/10/29 05:33:10;;;;;;;9.30;6.60;;;;;;;;;;4984671;28;20232;-75
2022/10/29 05:35:36;;;;;;;17.57;6.00;;;;;;;;;;5000700;28;20233;-75
2022/10/29 05:38:01;;;;;;;11.17;6.60;;;;;;;;;;4997290;28;20369;-74
2022/10/29 05:40:31;;;;;;;10.73;5.70;;;;;;;;;;5003485;28;20238;-75
2022/10/29 05:42:57;;;;;;;11.60;6.00;;;;;;;;;;5021703;28;20227;-75
2022/10/29 05:45:22;;;;;;;14.30;7.17;;;;;;;;;;5002567;28;20220;-75
2022/10/29 05:47:53;;;;;;;12.43;6.63;;;;;;;;;;5017772;28;20232;-75
2022/10/29 05:50:20;;;;;;;12.87;8.17;;;;;;;;;;5004620;28;20282;-74
2022/10/29 05:52:57;;;;;;;13.30;7.40;;;;;;;;;;5020835;28;20216;-75
2022/10/29 05:55:28;;;;;;;11.57;7.23;;;;;;;;;;4991002;28;20266;-74
2022/10/29 05:58:00;;;;;;;11.33;8.10;;;;;;;;;;5019519;28;20220;-74
2022/10/29 06:00:29;;;;;;;15.63;7.40;;;;;;;;;;5015978;28;20624;-74
2022/10/29 06:02:55;;;;;;;12.50;7.27;;;;;;;;;;5003530;28;20224;-75
2022/10/29 06:05:25;;;;;;;15.00;7.97;;;;;;;;;;5018836;28;21288;-74
2022/10/29 06:07:56;;;;;;;10.53;6.43;;;;;;;;;;5020430;28;20356;-75
2022/10/29 06:10:22;;;;;;;9.13;6.47;;;;;;;;;;5005227;28;20212;-75
2022/10/29 06:12:48;;;;;;;10.07;6.17;;;;;;;;;;5003205;28;20236;-75
2022/10/29 06:15:13;;;;;;;9.37;6.97;;;;;;;;;;5003184;28;20247;-75
2022/10/29 06:17:42;;;;;;;11.70;6.20;;;;;;;;;;5015448;28;20274;-75
2022/10/29 06:20:08;;;;;;;9.60;6.60;;;;;;;;;;5018762;28;20236;-74
2022/10/29 06:22:36;;;;;;;11.20;7.07;;;;;;;;;;5008379;28;20247;-74
2022/10/29 06:25:02;;;;;;;10.47;6.63;;;;;;;;;;5015655;28;20221;-74
2022/10/29 06:27:30;;;;;;;10.47;7.03;;;;;;;;;;4999691;28;20311;-75
2022/10/29 06:29:58;;;;;;;15.77;8.27;;;;;;;;;;5007508;28;20233;-74
2022/10/29 06:32:31;;;;;;;18.67;8.73;;;;;;;;;;5018059;28;20231;-74
2022/10/29 06:34:58;;;;;;;11.93;7.43;;;;;;;;;;5015125;28;20597;-74
2022/10/29 06:37:24;;;;;;;15.23;7.90;;;;;;;;;;5020154;28;20299;-75
2022/10/29 06:39:49;;;;;;;15.13;7.03;;;;;;;;;;4999809;28;20255;-75
2022/10/29 06:42:15;;;;;;;21.23;7.40;;;;;;;;;;5022250;28;20770;-76
2022/10/29 06:44:45;;;;;;;8.57;7.20;;;;;;;;;;5013443;28;20232;-75
2022/10/29 06:47:10;;;;;;;8.63;6.77;;;;;;;;;;5015121;28;20220;-74
2022/10/29 06:49:36;;;;;;;9.67;7.50;;;;;;;;;;5016955;28;20706;-75
2022/10/29 06:52:01;;;;;;;9.90;8.13;;;;;;;;;;5021451;28;20236;-75
2022/10/29 06:54:33;;;;;;;12.37;7.60;;;;;;;;;;5021484;28;20289;-75
2022/10/29 06:57:02;;;;;;;10.37;7.37;;;;;;;;;;5020179;28;20295;-75
2022/10/29 06:59:27;;;;;;;7.60;6.80;;;;;;;;;;5015358;28;20228;-75
2022/10/29 07:01:53;;;;;;;11.53;6.73;;;;;;;;;;5017179;28;20238;-76
2022/10/29 07:04:21;;;;;;;7.50;5.73;;;;;;;;;;5014438;28;20220;-75
2022/10/29 07:06:53;;;;;;;7.37;5.97;;;;;;;;;;5015947;28;20684;-75
2022/10/29 07:09:21;;;;;;;6.80;5.83;;;;;;;;;;5019758;28;20236;-75
2022/10/29 07:11:48;;;;;;;10.03;6.80;;;;;;;;;;5007762;28;20225;-74
2022/10/29 07:14:14;;;;;;;12.20;7.47;;;;;;;;;;5019513;28;20290;-75
2022/10/29 07:16:42;;;;;;;10.43;6.67;;;;;;;;;;5005879;28;20247;-72
2022/10/29 07:19:10;;;;;;;12.53;6.50;;;;;;;;;;5001672;28;20233;-75
2022/10/29 07:21:41;;;;;;;9.90;6.80;;;;;;;;;;5017819;28;20745;-73
2022/10/29 07:24:07;;;;;;;12.37;7.17;;;;;;;;;;4984191;28;20224;-74
2022/10/29 07:26:35;;;;;;;9.33;5.67;;;;;;;;;;5001487;28;20244;-76
2022/10/29 07:29:03;;;;;;;8.80;6.53;;;;;;;;;;5004416;28;20251;-75
2022/10/29 07:31:31;;;;;;;6.43;5.73;;;;;;;;;;4970189;28;20767;-75
2022/10/29 07:33:57;;;;;;;7.63;5.90;;;;;;;;;;4976702;28;20222;-73
2022/10/29 07:36:23;;;;;;;8.93;5.97;;;;;;;;;;4987062;28;20235;-74
2022/10/29 07:38:51;;;;;;;9.90;6.77;;;;;;;;;;5019759;28;20245;-74
2022/10/29 07:41:16;;;;;;;7.97;6.00;;;;;;;;;;4989307;28;20233;-75
2022/10/29 07:43:42;;;;;;;7.10;6.03;;;;;;;;;;5003142;28;20220;-72
2022/10/29 07:46:07;;;;;;;8.27;5.77;;;;;;;;;;4982231;28;20279;-73
2022/10/29 07:48:33;;;;;;;6.33;5.53;;;;;;;;;;5000830;28;20232;-75
2022/10/29 07:50:59;;;;;;;7.27;5.10;;;;;;;;;;5019154;28;20273;-75
2022/10/29 07:53:25;;;;;;;6.27;4.33;;;;;;;;;;5016355;28;20705;-74
2022/10/29 07:55:52;;;;;;;8.73;5.17;;;;;;;;;;5016820;28;20247;-74
2022/10/29 07:58:17;;;;;;;5.17;4.50;;;;;;;;;;4990583;28;20224;-74
2022/10/29 08:00:45;;;;;;;6.17;4.43;;;;;;;;;;4988953;28;20303;-75
2022/10/29 08:03:11;;;;;;;10.33;6.17;;;;;;;;;;4972593;28;20460;-74
2022/10/29 08:05:39;;;;;;;9.17;6.10;;;;;;;;;;5007766;28;20216;-77
2022/10/29 08:08:05;;;;;;;8.53;6.40;;;;;;;;;;5002565;28;20231;-78
2022/10/29 08:10:31;;;;;;;9.67;5.80;;;;;;;;;;4969827;28;20231;-76
2022/10/29 08:12:57;;;;;;;10.27;5.87;;;;;;;;;;4991207;28;20221;-76
2022/10/29 08:15:23;;;;;;;7.40;6.17;;;;;;;;;;4999889;28;20240;-76
2022/10/29 08:17:49;;;;;;;7.30;6.37;;;;;;;;;;4990728;28;20224;-75
2022/10/29 08:20:15;;;;;;;7.77;6.77;;;;;;;;;;5004251;28;20224;-76
2022/10/29 08:22:43;;;;;;;7.80;7.00;;;;;;;;;;4960328;28;20229;-76
2022/10/29 08:25:08;;;;;;;9.80;6.50;;;;;;;;;;5017958;28;20232;-77
2022/10/29 08:27:36;;;;;;;7.07;6.40;;;;;;;;;;4993985;28;20244;-76
2022/10/29 08:30:03;;;;;;;10.90;6.72;;;;;;;;;;4993584;28;20228;-76
2022/10/29 08:32:29;;;;;;;10.25;7.32;;;;;;;;;;4979197;28;20974;-77
2022/10/29 08:34:55;;;;;;;8.85;7.25;;;;;;;;;;4962182;28;20278;-76
2022/10/29 08:37:20;;;;;;;11.00;7.18;;;;;;;;;;5004781;28;20233;-77
2022/10/29 08:39:48;;;;;;;10.52;7.72;;;;;;;;;;4993205;28;20713;-77
2022/10/29 08:42:19;;;;;;;10.85;7.95;;;;;;;;;;5005815;28;20243;-78
2022/10/29 08:45:19;;;;;;;11.93;7.78;;;;;;;;;;5021930;28;20614;-78
2022/10/29 08:47:50;;;;;;;11.18;7.93;;;;;;;;;;5000172;28;20703;-76
2022/10/29 08:50:29;;;;;;;9.60;7.30;;;;;;;;;;5020367;28;20230;-78
2022/10/29 08:52:54;;;;;;;12.13;7.78;;;;;;;;;;5007214;28;20233;-77
2022/10/29 08:55:25;;;;;;;11.65;7.43;;;;;;;;;;5020578;28;20229;-76
2022/10/29 08:57:58;;;;;;;13.63;8.38;;;;;;;;;;4992287;28;20227;-78
2022/10/29 09:00:40;;;;;;;9.70;7.40;;;;;;;;;;5004226;28;20729;-76
2022/10/29 09:03:10;;;;;;;11.25;6.35;;;;;;;;;;5006258;28;20275;-76
2022/10/29 09:06:03;;;;;;;11.18;5.90;;;;;;;;;;4985442;28;20231;-76
2022/10/29 09:08:49;;;;;;;9.98;6.75;;;;;;;;;;5002300;28;20250;-73
2022/10/29 09:11:33;;;;;;;9.90;6.15;;;;;;;;;;5002558;28;20224;-74
2022/10/29 09:14:24;;;;;;;10.57;5.95;;;;;;;;;;5004990;28;20294;-74
2022/10/29 09:17:16;;;;;;;8.90;6.10;;;;;;;;;;5005120;28;20227;-74
2022/10/29 09:19:58;;;;;;;10.63;6.20;;;;;;;;;;5005378;28;20235;-76
2022/10/29 09:22:44;;;;;;;10.48;6.68;;;;;;;;;;4991477;28;20229;-76
2022/10/29 09:25:21;;;;;;;10.98;7.88;;;;;;;;;;5006976;28;20224;-77
2022/10/29 09:27:57;;;;;;;11.10;7.18;;;;;;;;;;4986333;28;20324;-76
2022/10/29 09:30:23;;;;;;;10.90;7.68;;;;;;;;;;5001397;28;20230;-77
2022/10/29 09:33:09;;;;;;;7.57;6.75;;;;;;;;;;5005431;28;20224;-77
2022/10/29 09:35:43;;;;;;;9.60;7.10;;;;;;;;;;4995318;28;20232;-78
2022/10/29 09:38:32;;;;;;;12.80;7.43;;;;;;;;;;4983434;28;20691;-77
2022/10/29 09:40:58;;;;;;;10.57;7.70;;;;;;;;;;5010839;28;20258;-77
2022/10/29 09:43:33;;;;;;;12.88;7.88;;;;;;;;;;5006648;28;20232;-77
2022/10/29 09:46:21;;;;;;;11.70;9.07;;;;;;;;;;5002498;28;20215;-77
2022/10/29 09:49:01;;;;;;;14.80;10.10;;;;;;;;;;5020850;28;20224;-78
2022/10/29 09:51:45;;;;;;;14.35;9.95;;;;;;;;;;5012017;28;20286;-77
2022/10/29 09:54:10;;;;;;;14.77;10.52;;;;;;;;;;5022093;28;20220;-76
2022/10/29 09:56:39;;;;;;;14.57;9.70;;;;;;;;;;4980572;28;20297;-78
2022/10/29 09:59:30;;;;;;;11.63;10.10;;;;;;;;;;5020734;28;20247;-80
2022/10/29 10:01:58;;;;;;;12.88;9.90;;;;;;;;;;4995955;28;20232;-78
2022/10/29 10:04:30;;;;;;;11.38;9.65;;;;;;;;;;4987894;28;20606;-78
2022/10/29 10:07:03;;;;;;;15.20;10.43;;;;;;;;;;5006955;28;20284;-78
2022/10/29 10:09:28;;;;;;;11.85;9.93;;;;;;;;;;4989057;28;20230;-78
2022/10/29 10:11:57;;;;;;;12.88;10.35;;;;;;;;;;5002002;28;20225;-77
2022/10/29 10:14:23;;;;;;;12.27;9.48;;;;;;;;;;4979015;28;20709;-78
2022/10/29 10:16:59;;;;;;;12.35;9.60;;;;;;;;;;5005912;28;20228;-77
2022/10/29 10:19:26;;;;;;;13.77;10.10;;;;;;;;;;4976528;28;20220;-76
2022/10/29 10:22:01;;;;;;;15.73;10.13;;;;;;;;;;5002369;28;20228;-78
2022/10/29 10:24:33;;;;;;;11.57;8.65;;;;;;;;;;5004678;28;20601;-76
2022/10/29 10:27:00;;;;;;;11.13;9.25;;;;;;;;;;4987644;28;20768;-76
2022/10/29 10:29:25;;;;;;;11.27;8.00;;;;;;;;;;5014492;28;20229;-76
2022/10/29 10:31:54;;;;;;;11.18;8.68;;;;;;;;;;5002469;28;20254;-76
2022/10/29 10:34:20;;;;;;;10.45;8.18;;;;;;;;;;5006878;28;20694;-76
2022/10/29 10:36:55;;;;;;;9.20;7.45;;;;;;;;;;5007149;28;20232;-78
2022/10/29 10:39:25;;;;;;;7.38;6.53;;;;;;;;;;5005701;28;20674;-77
2022/10/29 10:41:56;;;;;;;9.02;7.00;;;;;;;;;;5005324;28;20343;-79
2022/10/29 10:44:21;;;;;;;8.35;6.28;;;;;;;;;;5009241;28;20802;-78
2022/10/29 10:46:48;;;;;;;12.05;7.18;;;;;;;;;;5000273;28;20220;-78
2022/10/29 10:49:31;;;;;;;9.57;6.18;;;;;;;;;;5001481;28;20224;-78
2022/10/29 10:51:57;;;;;;;11.13;5.80;;;;;;;;;;5002176;28;20340;-78
2022/10/29 10:54:40;;;;;;;14.00;6.18;;;;;;;;;;5010070;28;21069;-79
2022/10/29 10:57:11;;;;;;;9.68;6.07;;;;;;;;;;4994905;28;20291;-79
2022/10/29 11:00:01;;;;;;;8.60;6.03;;;;;;;;;;5007170;28;20780;-79
2022/10/29 11:02:52;;;;;;;10.50;5.55;;;;;;;;;;5025433;28;20240;-79
2022/10/29 11:05:18;;;;;;;7.78;5.07;;;;;;;;;;5022839;28;20238;-79
2022/10/29 11:08:08;;;;;;;10.13;5.40;;;;;;;;;;5008185;28;20234;-78
2022/10/29 11:10:38;;;;;;;5.60;4.75;;;;;;;;;;5026711;28;20232;-79
2022/10/29 11:13:08;;;;;;;7.20;5.05;;;;;;;;;;5027176;28;20228;-79
2022/10/29 11:15:42;;;;;;;8.23;4.55;;;;;;;;;;5012361;28;20587;-78
2022/10/29 11:18:10;;;;;;;6.70;4.28;;;;;;;;;;4991498;28;20257;-78
2022/10/29 11:20:36;;;;;;;7.28;4.10;;;;;;;;;;5022476;28;20227;-79
2022/10/29 11:23:11;;;;;;;8.18;4.18;;;;;;;;;;4987269;28;20227;-80
2022/10/29 11:25:42;;;;;;;5.57;3.88;;;;;;;;;;5025666;28;20223;-80
2022/10/29 11:28:37;;;;;;;4.30;3.75;;;;;;;;;;5006892;28;20235;-80
2022/10/29 11:31:41;;;;;;;5.38;3.65;;;;;;;;;;5007148;28;20229;-80
2022/10/29 11:34:20;;;;;;;8.55;4.43;;;;;;;;;;5021638;28;20220;-80
2022/10/29 11:37:24;;;;;;;6.47;4.10;;;;;;;;;;4990928;28;20239;-80
2022/10/29 11:39:55;;;;;;;8.35;5.72;;;;;;;;;;4988865;28;20225;-80
2022/10/29 11:42:20;;;;;;;8.70;4.13;;;;;;;;;;5015493;28;20230;-80
2022/10/29 11:44:46;;;;;;;5.25;3.97;;;;;;;;;;4993867;28;20228;-79
2022/10/29 11:47:12;;;;;;;7.07;4.00;;;;;;;;;;5032409;28;20224;-79
2022/10/29 11:50:09;;;;;;;6.90;4.28;;;;;;;;;;5030202;28;20230;-79
2022/10/29 11:52:45;;;;;;;4.47;3.50;;;;;;;;;;5031540;28;20620;-79
2022/10/29 11:55:22;;;;;;;6.15;4.20;;;;;;;;;;4997208;28;20223;-80
2022/10/29 11:57:59;;;;;;;7.57;3.95;;;;;;;;;;5028719;28;20614;-78
2022/10/29 12:00:26;;;;;;;5.38;3.78;;;;;;;;;;4995249;28;20220;-79
2022/10/29 12:03:17;;;;;;;5.35;3.65;;;;;;;;;;4995957;28;20240;-80
2022/10/29 12:06:00;;;;;;;6.95;4.32;;;;;;;;;;5024201;28;20229;-81
2022/10/29 12:08:44;;;;;;;5.85;3.90;;;;;;;;;;5024211;28;20235;-80
2022/10/29 12:11:35;;;;;;;7.35;3.63;;;;;;;;;;5029285;28;20220;-79
2022/10/29 12:14:39;;;;;;;6.32;3.40;;;;;;;;;;5010010;28;20805;-80
2022/10/29 12:17:16;;;;;;;7.30;3.95;;;;;;;;;;4970016;28;20265;-80
2022/10/29 12:20:05;;;;;;;6.18;4.15;;;;;;;;;;4975837;28;20234;-80
2022/10/29 12:22:49;;;;;;;7.40;4.18;;;;;;;;;;5009799;28;20239;-80
2022/10/29 12:25:36;;;;;;;6.05;4.10;;;;;;;;;;5005585;28;20251;-81
2022/10/29 12:28:19;;;;;;;9.75;4.50;;;;;;;;;;5025550;28;20251;-81
2022/10/29 12:31:01;;;;;;;9.68;4.20;;;;;;;;;;5009375;28;20231;-80
2022/10/29 12:33:27;;;;;;;5.75;4.30;;;;;;;;;;4992417;28;20981;-79
2022/10/29 12:35:56;;;;;;;10.80;4.53;;;;;;;;;;4989152;28;20316;-82
2022/10/29 12:38:38;;;;;;;7.03;4.03;;;;;;;;;;5030257;28;20300;-79
2022/10/29 12:41:16;;;;;;;8.07;4.70;;;;;;;;;;5010322;28;20285;-79
2022/10/29 12:43:41;;;;;;;6.28;4.53;;;;;;;;;;5007556;28;20220;-80
2022/10/29 12:46:18;;;;;;;10.52;4.85;;;;;;;;;;5005550;28;20224;-80
2022/10/29 12:48:52;;;;;;;5.78;4.40;;;;;;;;;;5006237;28;20231;-81
2022/10/29 12:51:20;;;;;;;6.13;4.50;;;;;;;;;;5003328;28;20232;-81
2022/10/29 12:54:08;;;;;;;5.78;4.60;;;;;;;;;;4982580;28;20232;-80
2022/10/29 12:56:38;;;;;;;5.07;4.22;;;;;;;;;;4998528;28;20252;-82
2022/10/29 12:59:24;;;;;;;7.82;4.68;;;;;;;;;;4999517;28;20296;-81
2022/10/29 13:01:50;;;;;;;10.40;4.40;;;;;;;;;;5033975;28;20226;-79
2022/10/29 13:04:25;;;;;;;5.68;4.13;;;;;;;;;;4982019;28;20225;-77
2022/10/29 13:07:09;;;;;;;6.97;4.50;;;;;;;;;;5026818;28;20231;-81
2022/10/29 13:09:35;;;;;;;8.43;4.32;;;;;;;;;;5001569;28;20242;-78
2022/10/29 13:12:08;;;;;;;7.45;4.10;;;;;;;;;;4993243;28;20344;-79
2022/10/29 13:14:37;;;;;;;6.07;4.03;;;;;;;;;;4997102;28;20240;-82
2022/10/29 13:17:04;;;;;;;10.60;4.40;;;;;;;;;;5016722;28;20232;-78
2022/10/29 13:20:02;;;;;;;5.40;4.10;;;;;;;;;;4956543;28;20624;-80
2022/10/29 13:22:45;;;;;;;7.22;4.28;;;;;;;;;;5013336;28;20239;-78
2022/10/29 13:25:36;;;;;;;4.43;3.92;;;;;;;;;;5012482;28;20689;-80
2022/10/29 13:28:07;;;;;;;10.60;4.45;;;;;;;;;;5023748;28;20702;-81
2022/10/29 13:30:34;;;;;;;7.45;4.10;;;;;;;;;;5023430;28;20244;-80
2022/10/29 13:32:59;;;;;;;5.82;4.20;;;;;;;;;;4996733;28;20232;-79
2022/10/29 13:35:25;;;;;;;6.47;4.60;;;;;;;;;;5002196;28;20228;-79
2022/10/29 13:37:54;;;;;;;8.18;4.13;;;;;;;;;;5002197;28;20229;-80
2022/10/29 13:40:32;;;;;;;6.50;4.50;;;;;;;;;;5012345;28;20722;-79
2022/10/29 13:43:00;;;;;;;7.95;3.90;;;;;;;;;;5016312;28;20226;-80
2022/10/29 13:45:26;;;;;;;6.07;4.32;;;;;;;;;;5027431;28;20235;-79
2022/10/29 13:47:54;;;;;;;7.72;4.47;;;;;;;;;;5010746;28;20212;-79
2022/10/29 13:50:19;;;;;;;11.90;4.47;;;;;;;;;;4981738;28;20232;-80
2022/10/29 13:52:49;;;;;;;5.45;4.07;;;;;;;;;;4973832;28;20229;-79
2022/10/29 13:55:17;;;;;;;5.80;4.15;;;;;;;;;;4994046;28;20220;-78
2022/10/29 13:58:13;;;;;;;7.43;4.35;;;;;;;;;;5008439;28;20212;-77
2022/10/29 14:00:39;;;;;;;7.25;4.32;;;;;;;;;;5008811;28;20279;-79
2022/10/29 14:03:09;;;;;;;13.13;4.53;;;;;;;;;;4992255;28;20677;-78
2022/10/29 14:05:47;;;;;;;7.88;4.53;;;;;;;;;;5025678;28;20690;-77
2022/10/29 14:08:24;;;;;;;5.45;4.20;;;;;;;;;;4980796;28;21164;-77
2022/10/29 14:10:56;;;;;;;8.77;4.88;;;;;;;;;;5024930;28;20281;-77
2022/10/29 14:13:31;;;;;;;11.10;5.22;;;;;;;;;;4993861;28;20225;-78
2022/10/29 14:16:05;;;;;;;6.60;4.50;;;;;;;;;;5021540;28;20725;-79
2022/10/29 14:18:31;;;;;;;6.75;4.68;;;;;;;;;;5004853;28;20756;-77
2022/10/29 14:21:00;;;;;;;5.82;4.68;;;;;;;;;;4988613;28;20916;-78
2022/10/29 14:23:26;;;;;;;7.43;4.95;;;;;;;;;;5002065;28;20315;-78
2022/10/29 14:26:04;;;;;;;5.30;4.05;;;;;;;;;;4989574;28;21674;-79
2022/10/29 14:28:33;;;;;;;13.43;4.72;;;;;;;;;;5004535;28;20295;-77
2022/10/29 14:31:09;;;;;;;8.65;5.00;;;;;;;;;;4988784;28;20252;-78
2022/10/29 14:33:36;;;;;;;6.82;4.47;;;;;;;;;;4991257;28;20270;-78
2022/10/29 14:36:33;;;;;;;6.05;4.50;;;;;;;;;;4987176;28;20232;-78
2022/10/29 14:39:06;;;;;;;8.07;4.00;;;;;;;;;;5022863;28;20212;-78
2022/10/29 14:41:32;;;;;;;7.05;4.57;;;;;;;;;;5005053;28;20238;-79
2022/10/29 14:44:08;;;;;;;9.93;4.65;;;;;;;;;;5008956;28;20220;-80
2022/10/29 14:46:37;;;;;;;8.35;4.47;;;;;;;;;;4997879;28;20264;-79
2022/10/29 14:49:18;;;;;;;9.90;4.95;;;;;;;;;;4976225;28;20209;-79
2022/10/29 14:51:55;;;;;;;6.85;4.28;;;;;;;;;;4989066;28;20251;-78
2022/10/29 14:54:23;;;;;;;8.38;4.25;;;;;;;;;;5000716;28;20530;-78
2022/10/29 14:56:50;;;;;;;6.15;4.38;;;;;;;;;;4999292;28;20235;-78
2022/10/29 14:59:19;;;;;;;10.32;4.07;;;;;;;;;;4987844;28;20272;-78